Fairhaven, Washington
Current Conditions -  °F | °C
As of 6:53 PM on Thursday 27 Nov 2014 (Local Time) from KBLI Reporting Station
Overcast Overcast  
Wind Chill: 55°   Ceiling: 1400
Heat Index: 55°   Visibility: 10mi
Dew Point: 50°   Wind: 16mph
Humidity: 83%   Direction: 160°SSE
Pressure: 29.63"   Gusts: 25mph
Location:  48.7531°N, 122.502°W
Report Text: KBLI 280253Z 16014G22KT 10SM BKN014 BKN020 OVC065 13/10 A2963 RMK AO2 RAE12 SLP041 P0000 60000 T01280100 56015
Loading
Personal Weather Stations






























Interactive Weather Map New forecast layout! Learn more

10-Day Weather Forecast

Advertisements
Track Severe Weather on mobile